Time;durP1;ratioP1;P1;durP2;ratioP2;P2;SDS_P1;SDS_P2;PMS_P1;PMS_P2;Temp;Humidity;BMP_temperature;BMP_pressure;BME280_temperature;BME280_humidity;BME280_pressure;Samples;Min_cycle;Max_cycle;Signal;HPM_P1;HPM_P2
2022/10/09 00:01:01;;;;;;;20.37;7.03;;;;;6.00;97170.00;;;;8393539;28;20223;-70
2022/10/09 00:05:07;;;;;;;17.13;6.57;;;;;6.00;97162.00;;;;8392705;28;20233;-69
2022/10/09 00:09:41;;;;;;;34.10;8.60;;;;;5.90;97164.00;;;;8393241;28;20223;-70
2022/10/09 00:14:17;;;;;;;50.47;7.77;;;;;5.90;97164.00;;;;8393923;28;20233;-69
2022/10/09 00:18:21;;;;;;;57.53;9.57;;;;;6.00;97178.00;;;;8393585;28;20222;-69
2022/10/09 00:22:25;;;;;;;91.50;8.87;;;;;5.90;97161.00;;;;8392570;28;20219;-69
2022/10/09 00:26:59;;;;;;;118.97;9.53;;;;;5.80;97168.00;;;;8393930;28;20210;-69
2022/10/09 00:31:04;;;;;;;42.97;7.90;;;;;5.70;97160.00;;;;8392757;28;20668;-69
2022/10/09 00:35:38;;;;;;;129.60;10.20;;;;;5.60;97156.00;;;;8381768;28;20227;-69
2022/10/09 00:39:43;;;;;;;169.50;14.13;;;;;5.40;97156.00;;;;8393614;28;20219;-68
2022/10/09 00:44:23;;;;;;;229.30;17.40;;;;;5.30;97156.00;;;;8392772;28;20232;-69
2022/10/09 00:48:26;;;;;;;61.27;9.60;;;;;5.10;97147.00;;;;8392377;28;20640;-69
2022/10/09 00:53:03;;;;;;;17.60;6.80;;;;;5.10;97148.00;;;;8392979;28;20234;-69
2022/10/09 00:57:07;;;;;;;71.60;10.70;;;;;5.10;97158.00;;;;8392798;28;20642;-68
2022/10/09 01:01:41;;;;;;;45.07;7.30;;;;;5.00;97148.00;;;;8393267;28;20244;-68
2022/10/09 01:06:23;;;;;;;152.83;12.00;;;;;4.90;97143.00;;;;8398366;28;20229;-68
2022/10/09 01:10:59;;;;;;;14.87;6.47;;;;;4.80;97136.00;;;;8398911;28;20229;-70
2022/10/09 01:15:13;;;;;;;12.27;6.40;;;;;4.70;97138.00;;;;8397239;28;20218;-67
2022/10/09 01:19:50;;;;;;;14.50;6.23;;;;;4.70;97134.00;;;;8398200;28;20226;-68
2022/10/09 01:24:14;;;;;;;10.97;5.10;;;;;4.80;97134.00;;;;8397574;28;20215;-68
2022/10/09 01:28:21;;;;;;;14.70;6.40;;;;;4.70;97125.00;;;;8398015;28;20230;-68
2022/10/09 01:32:29;;;;;;;14.57;6.10;;;;;4.70;97123.00;;;;8397984;28;20226;-67
2022/10/09 01:36:59;;;;;;;11.37;5.43;;;;;4.70;97126.00;;;;8398287;28;20681;-67
2022/10/09 01:41:36;;;;;;;11.80;5.23;;;;;4.70;97118.00;;;;8411024;28;20217;-67
2022/10/09 01:46:16;;;;;;;16.47;5.60;;;;;4.70;97117.00;;;;8426003;28;20222;-66
2022/10/09 01:50:25;;;;;;;9.90;5.67;;;;;4.80;97116.00;;;;8425786;28;20533;-66
2022/10/09 01:55:02;;;;;;;12.90;5.90;;;;;4.80;97111.00;;;;8426625;28;20222;-67
2022/10/09 02:04:07;;;;;;;10.07;5.13;;;;;4.70;97107.00;;;;8396885;28;20650;-66
2022/10/09 02:08:15;;;;;;;7.60;4.90;;;;;4.70;97101.00;;;;8396865;28;20233;-66
2022/10/09 02:12:20;;;;;;;11.63;5.10;;;;;4.70;97098.00;;;;8397044;28;20226;-66
2022/10/09 02:17:01;;;;;;;155.83;11.50;;;;;4.50;97105.00;;;;8394464;28;20216;-66
2022/10/09 02:21:11;;;;;;;105.13;8.77;;;;;4.30;97091.00;;;;8396656;28;20220;-66
2022/10/09 02:25:40;;;;;;;18.73;5.20;;;;;4.20;97092.00;;;;8396186;28;20268;-66
2022/10/09 02:29:45;;;;;;;36.50;5.87;;;;;4.20;97085.00;;;;8396180;28;20331;-66
2022/10/09 02:33:55;;;;;;;202.97;13.60;;;;;4.20;97078.00;;;;8393579;28;20225;-66
2022/10/09 02:37:58;;;;;;;66.00;8.53;;;;;4.20;97084.00;;;;8395975;28;20215;-66
2022/10/09 02:42:35;;;;;;;12.47;5.77;;;;;4.20;97084.00;;;;8389134;28;20313;-66
2022/10/09 02:46:38;;;;;;;24.07;4.97;;;;;4.10;97088.00;;;;8395802;28;20224;-65
2022/10/09 02:51:15;;;;;;;10.83;4.93;;;;;4.10;97095.00;;;;8395119;28;20232;-65
2022/10/09 02:55:18;;;;;;;6.20;4.63;;;;;4.10;97080.00;;;;8395747;28;20221;-65
2022/10/09 03:04:54;;;;;;;11.80;5.07;;;;;3.80;97077.00;;;;8393631;28;20217;-65
2022/10/09 03:08:58;;;;;;;11.73;5.47;;;;;3.80;97078.00;;;;8395100;28;20649;-65
2022/10/09 03:13:32;;;;;;;7.40;4.43;;;;;3.80;97078.00;;;;8393905;28;20226;-65
2022/10/09 03:17:35;;;;;;;8.20;4.87;;;;;3.90;97074.00;;;;8394655;28;20217;-65
2022/10/09 03:21:39;;;;;;;9.27;4.33;;;;;3.90;97077.00;;;;8394604;28;20234;-65
2022/10/09 03:26:14;;;;;;;11.83;5.37;;;;;3.80;97077.00;;;;8394394;28;20228;-65
2022/10/09 03:30:17;;;;;;;7.77;4.50;;;;;3.80;97079.00;;;;8394077;28;20233;-65
2022/10/09 03:34:20;;;;;;;7.67;4.60;;;;;3.80;97073.00;;;;8394682;28;20565;-65
2022/10/09 03:38:58;;;;;;;7.33;4.73;;;;;3.80;97076.00;;;;8393101;28;20221;-64
2022/10/09 03:43:01;;;;;;;351.73;28.37;;;;;4.10;97076.00;;;;8393807;28;20263;-64
2022/10/09 03:47:35;;;;;;;764.87;56.73;;;;;5.20;97071.00;;;;8393898;28;20225;-64
2022/10/09 03:51:39;;;;;;;916.33;55.80;;;;;6.10;97073.00;;;;8393578;28;20220;-64
2022/10/09 03:56:17;;;;;;;955.20;63.07;;;;;6.60;97077.00;;;;8393523;28;20227;-65
2022/10/09 04:00:20;;;;;;;956.23;52.33;;;;;6.90;97085.00;;;;8393523;28;20221;-65
2022/10/09 04:04:57;;;;;;;354.90;26.77;;;;;7.10;97081.00;;;;8393132;28;20227;-66
2022/10/09 04:09:01;;;;;;;294.53;23.30;;;;;7.30;97084.00;;;;8392716;28;20257;-65
2022/10/09 04:13:39;;;;;;;134.10;13.90;;;;;7.40;97081.00;;;;8394056;28;20227;-66
2022/10/09 04:17:42;;;;;;;495.63;29.13;;;;;7.50;97091.00;;;;8393049;28;20538;-65
2022/10/09 04:21:45;;;;;;;340.63;23.70;;;;;7.50;97093.00;;;;8393515;28;20293;-64
2022/10/09 04:26:22;;;;;;;120.03;12.27;;;;;7.50;97086.00;;;;8393754;28;20226;-64
2022/10/09 04:30:26;;;;;;;58.53;9.07;;;;;7.50;97094.00;;;;8392592;28;20220;-65
2022/10/09 04:35:03;;;;;;;464.67;26.40;;;;;7.60;97096.00;;;;8391964;28;20245;-65
2022/10/09 04:39:07;;;;;;;377.77;22.83;;;;;7.60;97086.00;;;;8398530;28;20231;-64
2022/10/09 04:43:43;;;;;;;109.53;11.90;;;;;7.50;97090.00;;;;8399001;28;20226;-65
2022/10/09 04:47:48;;;;;;;79.27;11.50;;;;;7.50;97083.00;;;;8398673;28;20216;-66
2022/10/09 04:51:51;;;;;;;335.97;22.47;;;;;7.40;97080.00;;;;8400244;28;20219;-66
2022/10/09 04:56:28;;;;;;;52.20;9.70;;;;;7.30;97085.00;;;;8399425;28;20223;-66
2022/10/09 05:00:31;;;;;;;92.73;11.73;;;;;7.10;97075.00;;;;8402567;28;20219;-64
2022/10/09 05:05:10;;;;;;;28.43;8.43;;;;;7.00;97086.00;;;;8399073;28;20227;-63
2022/10/09 05:09:44;;;;;;;21.83;8.10;;;;;6.80;97080.00;;;;8400099;28;20220;-63
2022/10/09 05:13:50;;;;;;;16.43;6.87;;;;;6.80;97078.00;;;;8430156;28;20548;-63
2022/10/09 05:17:53;;;;;;;16.77;7.30;;;;;6.70;97085.00;;;;8431806;28;20219;-64
2022/10/09 05:22:29;;;;;;;21.67;7.53;;;;;6.60;97079.00;;;;8431836;28;20215;-64
2022/10/09 05:27:08;;;;;;;16.40;6.20;;;;;6.50;97082.00;;;;8427024;28;20620;-64
2022/10/09 05:31:42;;;;;;;15.07;7.17;;;;;6.40;97085.00;;;;8398266;28;20216;-63
2022/10/09 05:36:19;;;;;;;13.93;6.53;;;;;6.50;97097.00;;;;8429147;28;20298;-64
2022/10/09 05:40:56;;;;;;;17.33;6.23;;;;;6.40;97101.00;;;;8430714;28;20231;-64
2022/10/09 05:45:31;;;;;;;17.27;6.50;;;;;6.40;97105.00;;;;8430101;28;20279;-63
2022/10/09 05:50:05;;;;;;;23.87;5.97;;;;;6.40;97108.00;;;;8425426;28;20241;-64
2022/10/09 05:54:42;;;;;;;24.93;6.53;;;;;6.30;97096.00;;;;8427774;28;20560;-63
2022/10/09 05:59:19;;;;;;;29.40;7.03;;;;;6.30;97103.00;;;;8427892;28;20568;-64
2022/10/09 06:03:24;;;;;;;19.27;6.10;;;;;6.30;97105.00;;;;8397210;28;20227;-63
2022/10/09 06:07:57;;;;;;;17.67;6.47;;;;;6.30;97111.00;;;;8396956;28;20236;-63
2022/10/09 06:12:34;;;;;;;32.67;8.13;;;;;6.40;97110.00;;;;8396369;28;20224;-63
2022/10/09 06:17:10;;;;;;;31.17;6.93;;;;;6.40;97111.00;;;;8397198;28;20226;-63
2022/10/09 06:21:49;;;;;;;20.83;6.67;;;;;6.40;97108.00;;;;8426983;28;20649;-63
2022/10/09 06:25:53;;;;;;;19.23;5.67;;;;;6.50;97105.00;;;;8427878;28;20211;-63
2022/10/09 06:30:04;;;;;;;13.27;5.37;;;;;6.60;97117.00;;;;8429821;28;20609;-64
2022/10/09 06:34:38;;;;;;;25.77;6.97;;;;;6.70;97119.00;;;;8425869;28;20227;-63
2022/10/09 06:39:16;;;;;;;27.03;7.43;;;;;6.80;97120.00;;;;8429241;28;20230;-64
2022/10/09 06:43:50;;;;;;;19.37;7.13;;;;;6.90;97113.00;;;;8427372;28;20234;-63
2022/10/09 06:48:28;;;;;;;10.80;6.23;;;;;7.00;97125.00;;;;8424596;28;20219;-63
2022/10/09 06:53:05;;;;;;;21.70;7.10;;;;;7.20;97137.00;;;;8422826;28;20225;-64
2022/10/09 06:57:43;;;;;;;17.73;8.40;;;;;7.40;97142.00;;;;8420157;28;20222;-63
2022/10/09 07:02:17;;;;;;;17.57;7.00;;;;;7.50;97126.00;;;;8427218;28;20219;-64
2022/10/09 07:06:54;;;;;;;15.60;6.80;;;;;7.60;97126.00;;;;8426750;28;20281;-63
2022/10/09 07:11:32;;;;;;;12.73;6.00;;;;;7.60;97137.00;;;;8428280;28;20207;-64
2022/10/09 07:16:08;;;;;;;18.13;7.10;;;;;7.70;97140.00;;;;8427163;28;20219;-64
2022/10/09 07:20:47;;;;;;;15.67;6.53;;;;;8.00;97138.00;;;;8423785;28;20260;-65
2022/10/09 07:25:23;;;;;;;12.87;6.47;;;;;8.00;97136.00;;;;8425635;28;20223;-66
2022/10/09 07:30:00;;;;;;;19.30;6.97;;;;;8.00;97127.00;;;;8426475;28;20238;-66
2022/10/09 07:34:37;;;;;;;20.93;6.17;;;;;8.00;97127.00;;;;8426081;28;20231;-66
2022/10/09 07:38:42;;;;;;;20.37;6.40;;;;;8.00;97128.00;;;;8411946;28;20671;-66
2022/10/09 07:42:45;;;;;;;32.90;8.50;;;;;7.90;97131.00;;;;8426864;28;20216;-66
2022/10/09 07:47:22;;;;;;;33.37;8.73;;;;;7.90;97120.00;;;;8427556;28;20238;-66
2022/10/09 07:51:59;;;;;;;33.03;9.63;;;;;7.90;97122.00;;;;8425229;28;20222;-66
2022/10/09 07:56:36;;;;;;;35.80;9.13;;;;;8.00;97119.00;;;;8426638;28;20281;-66
2022/10/09 08:01:12;;;;;;;28.40;9.30;;;;;8.00;97126.00;;;;8422392;28;20219;-67
2022/10/09 08:05:21;;;;;;;30.80;8.90;;;;;8.10;97123.00;;;;8424098;28;20219;-66
2022/10/09 08:09:58;;;;;;;25.77;8.37;;;;;8.20;97129.00;;;;8427045;28;20285;-67
2022/10/09 08:14:35;;;;;;;24.13;8.77;;;;;8.30;97136.00;;;;8426029;28;20227;-66
2022/10/09 08:19:14;;;;;;;21.83;9.33;;;;;8.40;97137.00;;;;8422546;28;20214;-67
2022/10/09 08:23:47;;;;;;;23.33;9.23;;;;;8.60;97135.00;;;;8423731;28;20226;-67
2022/10/09 08:27:52;;;;;;;19.30;7.57;;;;;8.60;97132.00;;;;8392706;28;20645;-67
2022/10/09 08:31:55;;;;;;;13.90;6.60;;;;;8.70;97123.00;;;;8392188;28;20211;-67
2022/10/09 08:36:34;;;;;;;19.97;7.00;;;;;8.70;97129.00;;;;8393627;28;20569;-67
2022/10/09 08:41:09;;;;;;;16.00;8.03;;;;;8.80;97127.00;;;;8425596;28;20223;-67
2022/10/09 08:45:45;;;;;;;18.90;7.57;;;;;8.90;97127.00;;;;8391240;28;20223;-67
2022/10/09 08:49:54;;;;;;;19.13;9.50;;;;;9.00;97120.00;;;;8423901;28;20552;-67
2022/10/09 08:54:30;;;;;;;17.77;8.07;;;;;9.20;97120.00;;;;8426646;28;20302;-67
2022/10/09 08:58:58;;;;;;;19.55;8.15;;;;;9.30;97124.00;;;;8424478;28;20207;-67
2022/10/09 09:03:50;;;;;;;13.90;7.77;;;;;9.40;97120.00;;;;8425533;28;20555;-67
2022/10/09 09:08:15;;;;;;;11.07;7.20;;;;;9.50;97125.00;;;;8291990;28;20257;-67
2022/10/09 09:12:49;;;;;;;13.57;7.00;;;;;9.70;97122.00;;;;8289854;28;20638;-68
2022/10/09 09:17:04;;;;;;;14.70;7.23;;;;;9.90;97108.00;;;;8402568;28;20280;-68
2022/10/09 09:21:17;;;;;;;11.53;6.60;;;;;10.00;97110.00;;;;8426279;28;20216;-68
2022/10/09 09:25:45;;;;;;;12.17;7.47;;;;;10.30;97103.00;;;;8426951;28;20239;-68
2022/10/09 09:29:57;;;;;;;9.50;5.90;;;;;10.50;97102.00;;;;8429052;28;20579;-68
2022/10/09 09:34:28;;;;;;;12.38;6.20;;;;;10.80;97098.00;;;;8431477;28;20249;-68
2022/10/09 09:38:31;;;;;;;10.40;6.03;;;;;11.00;97106.00;;;;8431251;28;20219;-68
2022/10/09 09:42:34;;;;;;;10.88;5.97;;;;;11.40;97098.00;;;;8431781;28;20673;-68
2022/10/09 09:47:15;;;;;;;9.85;6.38;;;;;11.80;97092.00;;;;8431859;28;20219;-69
2022/10/09 09:51:49;;;;;;;10.00;5.15;;;;;11.80;97079.00;;;;8428492;28;20241;-69
2022/10/09 09:56:26;;;;;;;11.32;5.03;;;;;12.10;97080.00;;;;8427853;28;20215;-69
2022/10/09 10:00:29;;;;;;;9.60;5.43;;;;;12.20;97072.00;;;;8430109;28;20533;-69
2022/10/09 10:04:34;;;;;;;7.30;5.78;;;;;12.30;97080.00;;;;8430376;28;20436;-68
2022/10/09 10:09:12;;;;;;;7.60;6.22;;;;;12.40;97069.00;;;;8431155;28;20228;-69
2022/10/09 10:13:49;;;;;;;12.30;6.43;;;;;12.60;97077.00;;;;8426963;28;20654;-69
2022/10/09 10:18:01;;;;;;;11.82;5.88;;;;;13.10;97070.00;;;;8427899;28;20219;-69
2022/10/09 10:22:21;;;;;;;7.03;5.43;;;;;13.60;97069.00;;;;8430408;28;20217;-68
2022/10/09 10:26:43;;;;;;;11.73;5.28;;;;;13.90;97072.00;;;;8397325;28;20241;-69
2022/10/09 10:31:24;;;;;;;9.57;5.00;;;;;13.70;97060.00;;;;8425921;28;20217;-69
2022/10/09 10:35:52;;;;;;;12.77;4.95;;;;;13.70;97053.00;;;;8427106;28;20544;-69
2022/10/09 10:40:02;;;;;;;5.97;4.05;;;;;14.30;97049.00;;;;8429780;28;20215;-69
2022/10/09 10:44:09;;;;;;;5.60;3.15;;;;;14.40;97053.00;;;;8430030;28;20250;-68
2022/10/09 10:48:41;;;;;;;4.65;3.10;;;;;14.00;97049.00;;;;8429108;28;20222;-69
2022/10/09 10:53:20;;;;;;;6.43;2.85;;;;;14.00;97047.00;;;;8429448;28;20218;-69
2022/10/09 10:57:55;;;;;;;3.20;2.35;;;;;14.10;97050.00;;;;8425639;28;20225;-69
2022/10/09 11:02:35;;;;;;;4.13;3.00;;;;;14.10;97041.00;;;;8421689;28;20219;-69
2022/10/09 11:11:48;;;;;;;3.58;2.58;;;;;14.30;97032.00;;;;8428742;28;20548;-70
2022/10/09 11:16:05;;;;;;;6.60;2.85;;;;;14.40;97029.00;;;;8424834;28;20264;-69
2022/10/09 11:20:52;;;;;;;3.97;2.53;;;;;14.50;97016.00;;;;8427139;28;20317;-70
2022/10/09 11:25:19;;;;;;;6.70;2.83;;;;;14.70;97003.00;;;;8290466;28;20231;-69
2022/10/09 11:29:28;;;;;;;4.50;2.50;;;;;14.90;97006.00;;;;8406099;28;20256;-69
2022/10/09 11:33:36;;;;;;;2.35;2.15;;;;;15.10;97000.00;;;;8423267;28;20651;-69
2022/10/09 11:38:23;;;;;;;3.05;2.13;;;;;15.40;97001.00;;;;8428708;28;20537;-69
2022/10/09 11:42:52;;;;;;;3.72;2.67;;;;;15.80;96987.00;;;;8426898;28;20238;-69
2022/10/09 11:47:20;;;;;;;3.45;2.03;;;;;16.00;96987.00;;;;8426944;28;20219;-69
2022/10/09 11:52:01;;;;;;;2.22;2.00;;;;;16.20;96983.00;;;;8428345;28;20621;-69
2022/10/09 11:56:32;;;;;;;1.83;1.70;;;;;16.30;96969.00;;;;8425415;28;20219;-69
2022/10/09 12:01:21;;;;;;;2.72;1.60;;;;;16.30;96970.00;;;;8425172;28;20223;-69
2022/10/09 12:05:46;;;;;;;3.05;2.00;;;;;16.40;96966.00;;;;8393017;28;20230;-69
2022/10/09 12:09:59;;;;;;;3.78;1.83;;;;;16.40;96962.00;;;;8427620;28;20211;-69
2022/10/09 12:14:03;;;;;;;2.88;1.80;;;;;16.40;96954.00;;;;8426090;28;20214;-68
2022/10/09 12:18:22;;;;;;;4.13;1.95;;;;;16.50;96946.00;;;;8427759;28;20245;-68
2022/10/09 12:22:52;;;;;;;2.30;2.00;;;;;16.70;96944.00;;;;8421613;28;20211;-69
2022/10/09 12:27:28;;;;;;;4.45;1.83;;;;;16.80;96937.00;;;;8426154;28;20230;-68
2022/10/09 12:32:04;;;;;;;2.42;2.03;;;;;16.90;96934.00;;;;8424736;28;20241;-68
2022/10/09 12:36:13;;;;;;;2.05;1.85;;;;;17.00;96932.00;;;;8425512;28;20560;-68
2022/10/09 12:40:43;;;;;;;3.28;1.60;;;;;16.80;96930.00;;;;8422571;28;20566;-68
2022/10/09 12:45:23;;;;;;;2.47;1.83;;;;;16.70;96931.00;;;;8427061;28;20253;-68
2022/10/09 12:49:58;;;;;;;5.50;2.60;;;;;16.80;96926.00;;;;8411756;28;20220;-68
2022/10/09 12:54:32;;;;;;;3.05;1.85;;;;;16.90;96911.00;;;;8393333;28;20219;-70
2022/10/09 12:59:10;;;;;;;3.67;1.92;;;;;16.90;96902.00;;;;8427679;28;20652;-69
2022/10/09 13:03:52;;;;;;;4.32;2.38;;;;;16.90;96898.00;;;;8432425;28;20226;-69
2022/10/09 13:08:23;;;;;;;2.53;2.10;;;;;16.90;96891.00;;;;8428457;28;20222;-70
2022/10/09 13:12:58;;;;;;;2.67;2.15;;;;;17.00;96887.00;;;;8429853;28;20223;-70
2022/10/09 13:17:01;;;;;;;2.28;2.08;;;;;17.00;96886.00;;;;8429746;28;20211;-69
2022/10/09 13:21:36;;;;;;;3.13;2.00;;;;;16.90;96878.00;;;;8431677;28;20224;-70
2022/10/09 13:26:12;;;;;;;2.80;1.70;;;;;16.90;96872.00;;;;8430448;28;20242;-69
2022/10/09 13:30:47;;;;;;;2.17;2.00;;;;;16.90;96875.00;;;;8429906;28;20253;-69
2022/10/09 13:35:24;;;;;;;3.83;2.33;;;;;16.90;96867.00;;;;8431030;28;20702;-69
2022/10/09 13:40:04;;;;;;;4.18;2.33;;;;;16.90;96870.00;;;;8394874;28;20216;-69
2022/10/09 13:44:38;;;;;;;3.35;1.90;;;;;16.80;96864.00;;;;8400380;28;20634;-69
2022/10/09 13:48:41;;;;;;;2.65;2.05;;;;;16.70;96865.00;;;;8424529;28;20372;-69
2022/10/09 13:53:18;;;;;;;2.67;2.00;;;;;16.70;96861.00;;;;8430505;28;20219;-70
2022/10/09 13:57:56;;;;;;;2.72;2.35;;;;;16.60;96858.00;;;;8429958;28;20652;-70
2022/10/09 14:02:30;;;;;;;3.08;2.20;;;;;16.60;96851.00;;;;8430339;28;20218;-70
2022/10/09 14:06:35;;;;;;;3.53;1.90;;;;;16.70;96848.00;;;;8429274;28;20219;-69
2022/10/09 14:10:41;;;;;;;3.50;2.22;;;;;16.70;96847.00;;;;8430574;28;20211;-70
2022/10/09 14:15:16;;;;;;;7.80;2.53;;;;;16.70;96835.00;;;;8430438;28;20223;-69
2022/10/09 14:19:50;;;;;;;4.63;2.33;;;;;16.60;96839.00;;;;8429626;28;20219;-69
2022/10/09 14:24:38;;;;;;;2.80;1.90;;;;;16.60;96837.00;;;;8430314;28;20215;-69
2022/10/09 14:29:05;;;;;;;6.68;1.90;;;;;16.60;96830.00;;;;8398472;28;20250;-69
2022/10/09 14:33:42;;;;;;;3.22;1.92;;;;;16.50;96835.00;;;;8423006;28;20298;-69
2022/10/09 14:38:20;;;;;;;8.02;2.13;;;;;16.50;96831.00;;;;8426324;28;20223;-69
2022/10/09 14:42:54;;;;;;;40.33;24.23;;;;;16.40;96820.00;;;;8429434;28;20212;-69
2022/10/09 14:47:31;;;;;;;2.47;2.28;;;;;16.40;96816.00;;;;8428541;28;20564;-69
2022/10/09 14:51:54;;;;;;;4.68;2.30;;;;;16.40;96812.00;;;;8427138;28;20257;-69
2022/10/09 14:56:32;;;;;;;5.18;2.30;;;;;16.40;96811.00;;;;8395696;28;20258;-68
2022/10/09 15:01:06;;;;;;;9.07;7.20;;;;;16.40;96798.00;;;;8425897;28;20215;-68
2022/10/09 15:05:42;;;;;;;4.22;2.47;;;;;16.30;96799.00;;;;8427575;28;20227;-67
2022/10/09 15:09:46;;;;;;;3.75;2.13;;;;;16.20;96793.00;;;;8429069;28;20243;-67
2022/10/09 15:14:22;;;;;;;4.80;2.70;;;;;16.00;96786.00;;;;8428331;28;20245;-68
2022/10/09 15:19:01;;;;;;;4.93;2.33;;;;;15.90;96772.00;;;;8424148;28;20211;-68
2022/10/09 15:23:34;;;;;;;3.63;2.33;;;;;15.80;96783.00;;;;8394244;28;20212;-68
2022/10/09 15:28:12;;;;;;;3.53;2.45;;;;;15.70;96775.00;;;;8393693;28;20228;-68
2022/10/09 15:32:15;;;;;;;7.82;2.65;;;;;15.60;96773.00;;;;8424739;28;20766;-68
2022/10/09 15:36:53;;;;;;;2.55;2.03;;;;;15.50;96770.00;;;;8428541;28;20557;-68
2022/10/09 15:41:27;;;;;;;3.85;2.17;;;;;15.30;96764.00;;;;8426037;28;20211;-68
2022/10/09 15:46:04;;;;;;;3.60;2.08;;;;;15.20;96763.00;;;;8424310;28;20219;-68
2022/10/09 15:50:08;;;;;;;3.50;2.30;;;;;15.00;96758.00;;;;8424542;28;20219;-67
2022/10/09 15:54:42;;;;;;;3.65;2.22;;;;;14.90;96742.00;;;;8427005;28;20227;-67
2022/10/09 15:58:46;;;;;;;3.13;2.38;;;;;14.70;96733.00;;;;8426842;28;20534;-67
2022/10/09 16:02:49;;;;;;;4.75;2.80;;;;;14.60;96736.00;;;;8427330;28;20215;-66
2022/10/09 16:07:26;;;;;;;3.85;2.45;;;;;14.50;96726.00;;;;8425129;28;20238;-67
2022/10/09 16:11:30;;;;;;;6.38;2.70;;;;;14.40;96719.00;;;;8424011;28;20522;-67
2022/10/09 16:16:06;;;;;;;6.07;2.90;;;;;14.30;96717.00;;;;8426500;28;20588;-67
2022/10/09 16:20:10;;;;;;;4.47;2.83;;;;;14.20;96719.00;;;;8426996;28;20219;-67
2022/10/09 16:24:46;;;;;;;5.72;2.97;;;;;14.10;96709.00;;;;8427484;28;20219;-68
2022/10/09 16:28:53;;;;;;;4.25;2.90;;;;;14.00;96709.00;;;;8425644;28;20219;-68
2022/10/09 16:32:57;;;;;;;9.73;3.00;;;;;13.90;96698.00;;;;8430773;28;20593;-68
2022/10/09 16:37:31;;;;;;;6.13;3.33;;;;;13.80;96697.00;;;;8401049;28;20226;-68
2022/10/09 16:42:07;;;;;;;3.85;2.60;;;;;13.70;96704.00;;;;8429134;28;20225;-68
2022/10/09 16:46:44;;;;;;;4.85;2.50;;;;;13.60;96698.00;;;;8431174;28;20219;-69
2022/10/09 16:51:23;;;;;;;2.72;2.20;;;;;13.50;96696.00;;;;8431195;28;20211;-69
2022/10/09 16:55:57;;;;;;;3.35;2.50;;;;;13.50;96703.00;;;;8432323;28;20215;-68
2022/10/09 17:00:34;;;;;;;2.50;2.10;;;;;13.40;96710.00;;;;8432541;28;20667;-69
2022/10/09 17:05:11;;;;;;;2.95;2.17;;;;;13.30;96712.00;;;;8429996;28;20237;-69
2022/10/09 17:09:49;;;;;;;4.25;3.03;;;;;13.20;96703.00;;;;8430450;28;20576;-69
2022/10/09 17:13:55;;;;;;;9.77;2.63;;;;;13.20;96703.00;;;;8430599;28;20222;-68
2022/10/09 17:18:29;;;;;;;8.70;2.63;;;;;13.10;96698.00;;;;8432542;28;20552;-68
2022/10/09 17:23:05;;;;;;;5.00;2.05;;;;;13.00;96699.00;;;;8427159;28;20606;-69
2022/10/09 17:27:42;;;;;;;4.75;2.38;;;;;13.00;96697.00;;;;8428314;28;20226;-69
2022/10/09 17:31:46;;;;;;;4.22;2.00;;;;;12.90;96704.00;;;;8429834;28;20211;-69
2022/10/09 17:35:49;;;;;;;4.63;2.35;;;;;12.90;96707.00;;;;8431645;28;20682;-68
2022/10/09 17:39:52;;;;;;;3.38;2.35;;;;;12.80;96712.00;;;;8431219;28;20223;-69
2022/10/09 17:44:30;;;;;;;7.40;3.10;;;;;12.70;96697.00;;;;8430974;28;20223;-68
2022/10/09 17:49:04;;;;;;;3.20;1.98;;;;;12.60;96696.00;;;;8426314;28;20666;-68
2022/10/09 17:53:42;;;;;;;3.65;2.70;;;;;12.50;96695.00;;;;8428051;28;20219;-68
2022/10/09 17:58:16;;;;;;;11.73;2.72;;;;;12.40;96690.00;;;;8428277;28;20221;-68
2022/10/09 18:02:53;;;;;;;2.80;2.58;;;;;12.40;96687.00;;;;8430661;28;20226;-69
2022/10/09 18:07:30;;;;;;;4.60;2.33;;;;;12.30;96691.00;;;;8429391;28;20265;-68
2022/10/09 18:11:35;;;;;;;4.20;2.60;;;;;12.30;96677.00;;;;8430065;28;20225;-68
2022/10/09 18:21:10;;;;;;;5.68;2.33;;;;;12.20;96676.00;;;;8429112;28;20619;-69
2022/10/09 18:25:44;;;;;;;4.18;2.03;;;;;12.20;96669.00;;;;8424503;28;20214;-69
2022/10/09 18:30:22;;;;;;;3.90;2.58;;;;;12.10;96653.00;;;;8428112;28;20221;-69
2022/10/09 18:34:25;;;;;;;6.30;2.10;;;;;12.10;96657.00;;;;8427923;28;20222;-69
2022/10/09 18:38:28;;;;;;;4.50;2.70;;;;;12.10;96651.00;;;;8430543;28;20222;-68
2022/10/09 18:43:05;;;;;;;8.88;2.65;;;;;12.10;96648.00;;;;8429778;28;20220;-69
2022/10/09 18:47:44;;;;;;;7.50;2.85;;;;;12.00;96644.00;;;;8421548;28;20231;-70
2022/10/09 18:51:48;;;;;;;3.42;2.72;;;;;12.00;96641.00;;;;8427115;28;20221;-70
2022/10/09 18:56:24;;;;;;;6.40;2.63;;;;;12.00;96647.00;;;;8428621;28;20226;-70
2022/10/09 19:01:01;;;;;;;4.78;2.30;;;;;11.90;96637.00;;;;8425444;28;20222;-69
2022/10/09 19:05:41;;;;;;;9.23;2.58;;;;;11.90;96637.00;;;;8425507;28;20314;-69
2022/10/09 19:10:15;;;;;;;6.35;3.63;;;;;11.90;96631.00;;;;8395252;28;20565;-70
2022/10/09 19:14:52;;;;;;;3.85;2.20;;;;;11.80;96632.00;;;;8426239;28;20219;-70
2022/10/09 19:19:28;;;;;;;6.43;2.80;;;;;11.80;96635.00;;;;8426633;28;20236;-70
2022/10/09 19:24:05;;;;;;;4.40;2.72;;;;;11.70;96628.00;;;;8428587;28;20222;-70
2022/10/09 19:28:10;;;;;;;6.07;2.60;;;;;11.70;96629.00;;;;8393665;28;20216;-70
2022/10/09 19:32:44;;;;;;;4.50;3.05;;;;;11.60;96623.00;;;;8386722;28;20219;-70
2022/10/09 19:37:22;;;;;;;3.30;2.65;;;;;11.50;96629.00;;;;8423254;28;20223;-70
2022/10/09 19:42:01;;;;;;;5.55;2.38;;;;;11.50;96624.00;;;;8424755;28;20265;-69
2022/10/09 19:46:39;;;;;;;3.33;2.47;;;;;11.40;96622.00;;;;8427364;28;20211;-69
2022/10/09 19:51:14;;;;;;;4.20;2.70;;;;;11.40;96621.00;;;;8424396;28;20213;-71
2022/10/09 19:55:51;;;;;;;4.80;2.67;;;;;11.30;96613.00;;;;8424668;28;20216;-69
2022/10/09 20:00:28;;;;;;;5.70;2.88;;;;;11.20;96612.00;;;;8426812;28;20226;-69
2022/10/09 20:04:33;;;;;;;2.50;2.30;;;;;11.20;96606.00;;;;8427377;28;20226;-69
2022/10/09 20:09:07;;;;;;;4.18;3.08;;;;;11.10;96607.00;;;;8426630;28;20310;-70
2022/10/09 20:13:10;;;;;;;4.68;2.78;;;;;11.10;96603.00;;;;8423269;28;20284;-69
2022/10/09 20:17:13;;;;;;;3.75;2.63;;;;;11.20;96606.00;;;;8426970;28;20223;-69
2022/10/09 20:21:18;;;;;;;7.95;2.78;;;;;11.10;96603.00;;;;8427618;28;20237;-69
2022/10/09 20:25:21;;;;;;;5.50;3.20;;;;;11.10;96603.00;;;;8427093;28;20276;-69
2022/10/09 20:29:58;;;;;;;6.47;3.03;;;;;11.00;96601.00;;;;8425683;28;20226;-70
2022/10/09 20:34:02;;;;;;;3.97;2.83;;;;;11.00;96605.00;;;;8425921;28;20218;-70
2022/10/09 20:38:40;;;;;;;10.13;2.40;;;;;10.90;96599.00;;;;8426197;28;20227;-70
2022/10/09 20:42:43;;;;;;;6.25;2.80;;;;;10.80;96589.00;;;;8423924;28;20215;-70
2022/10/09 20:46:46;;;;;;;8.60;3.05;;;;;10.80;96590.00;;;;8426534;28;20211;-71
2022/10/09 20:51:24;;;;;;;4.95;2.60;;;;;10.80;96592.00;;;;8426210;28;20564;-70
2022/10/09 20:55:28;;;;;;;5.43;2.83;;;;;10.70;96588.00;;;;8424260;28;20216;-70
2022/10/09 21:00:02;;;;;;;5.38;3.17;;;;;10.70;96585.00;;;;8426489;28;20225;-70
2022/10/09 21:04:05;;;;;;;7.38;3.72;;;;;10.70;96585.00;;;;8424815;28;20222;-69
2022/10/09 21:08:09;;;;;;;7.95;3.00;;;;;10.70;96585.00;;;;8415335;28;20272;-70
2022/10/09 21:12:13;;;;;;;6.60;3.00;;;;;10.80;96582.00;;;;8422098;28;20227;-69
2022/10/09 21:16:17;;;;;;;3.60;2.92;;;;;10.80;96579.00;;;;8426809;28;20232;-70
2022/10/09 21:20:51;;;;;;;6.20;3.05;;;;;10.80;96574.00;;;;8429671;28;20233;-70
2022/10/09 21:24:54;;;;;;;5.18;2.95;;;;;10.90;96566.00;;;;8432464;28;20560;-69
2022/10/09 21:28:58;;;;;;;5.25;2.72;;;;;10.90;96575.00;;;;8414545;28;20219;-70
2022/10/09 21:33:02;;;;;;;7.63;4.00;;;;;10.90;96581.00;;;;8398295;28;20229;-70
2022/10/09 21:37:38;;;;;;;7.78;4.25;;;;;10.90;96575.00;;;;8398533;28;20229;-69
2022/10/09 21:41:41;;;;;;;6.90;3.38;;;;;11.00;96572.00;;;;8427009;28;20222;-69
2022/10/09 21:45:49;;;;;;;5.82;3.05;;;;;10.90;96564.00;;;;8430673;28;20264;-70
2022/10/09 21:49:52;;;;;;;6.60;3.17;;;;;11.00;96562.00;;;;8432020;28;20218;-70
2022/10/09 21:53:56;;;;;;;4.45;2.30;;;;;11.00;96558.00;;;;8430791;28;20220;-70
2022/10/09 21:57:59;;;;;;;4.53;3.08;;;;;11.00;96556.00;;;;8431928;28;20227;-70
2022/10/09 22:02:37;;;;;;;4.22;2.95;;;;;11.00;96560.00;;;;8430937;28;20242;-69
2022/10/09 22:06:42;;;;;;;4.55;2.80;;;;;11.00;96558.00;;;;8430469;28;20223;-70
2022/10/09 22:11:16;;;;;;;4.70;2.60;;;;;11.10;96548.00;;;;8426925;28;20222;-69
2022/10/09 22:15:19;;;;;;;3.63;2.53;;;;;11.10;96551.00;;;;8427388;28;20215;-70
2022/10/09 22:19:23;;;;;;;4.35;2.70;;;;;11.20;96554.00;;;;8430757;28;20278;-70